»·PEaware :: FFT166 KJAC-KDEN

FFT166 :: KJAC-KDEN

FLIGHT INFORMATION

Flight Status: Arrived
Operator:
Frontier Airlines
More flights by this operator :: More flights under this callsign
Pilot: James N. (18449)
Aircraft: AIRBUS A319
(A319)
More flights by this aircraft type
Origin: KJAC Jackson Hole
United States
Destination: KDEN Denver Intl
United States
More flights between these airports :: More routes between these airports
Route: +ALPIN2 KICNE OCS GWEDO FRNCH3
File this flight plan on PilotEdge
Remarks: RMK / SIMBRIEF
Altitude:
(Current/Filed)
39,000ft
Speed:
(Current/Filed)
449kts
Departed: 07-Jul-19 07:27 PM
Arrived: 07-Jul-19 08:34 PM
Distance/Time
Traveled:
353nm/1:07
Distance/Time
To Go:
Arrived

Flight Plot

Page will automatically refresh every two minutes.

Flight plan parsing failed; only flown route is shown


Map Options




Map Legend


Flown Route
Filed Route
Departure Airport
Arrival Airport
Navaid (VOR, NDB)
Fix

Horizontal Profiles

Position Reports

Time Latitude Longitude Heading Altitude Ground
Speed
07-Jul-19 18:51 43.601480 -110.738000 110 6429ft 0kts
07-Jul-19 18:52 43.601480 -110.738000 110 6429ft 0kts
07-Jul-19 18:53 43.601480 -110.738000 110 6429ft 0kts
07-Jul-19 18:54 43.601480 -110.738000 110 6429ft 0kts
07-Jul-19 18:55 43.601480 -110.738000 110 6429ft 0kts
07-Jul-19 18:56 43.601480 -110.738000 110 6429ft 0kts
07-Jul-19 18:57 43.601480 -110.738000 110 6429ft 0kts
07-Jul-19 18:58 43.601480 -110.738000 110 6429ft 0kts
07-Jul-19 18:59 43.601480 -110.738000 110 6429ft 0kts
07-Jul-19 19:00 43.601480 -110.738000 110 6429ft 0kts
07-Jul-19 19:01 43.601480 -110.738000 110 6429ft 0kts
07-Jul-19 19:02 43.601480 -110.738000 110 6429ft 0kts
07-Jul-19 19:03 43.601480 -110.738000 110 6429ft 0kts
07-Jul-19 19:04 43.601480 -110.738000 110 6429ft 0kts
07-Jul-19 19:05 43.601480 -110.738000 110 6429ft 0kts
07-Jul-19 19:06 43.601480 -110.738000 110 6429ft 0kts
07-Jul-19 19:07 43.601480 -110.738000 110 6429ft 0kts
07-Jul-19 19:08 43.601480 -110.738000 110 6429ft 0kts
07-Jul-19 19:09 43.601480 -110.738000 110 6429ft 0kts
07-Jul-19 19:10 43.601480 -110.738000 110 6429ft 0kts
07-Jul-19 19:11 43.601480 -110.738000 110 6429ft 0kts
07-Jul-19 19:12 43.601480 -110.738000 110 6429ft 0kts
07-Jul-19 19:13 43.601480 -110.738000 109 6429ft 0kts
07-Jul-19 19:14 43.601479 -110.737998 110 6429ft 0kts
07-Jul-19 19:15 43.601492 -110.738046 110 6429ft 5kts
07-Jul-19 19:16 43.601690 -110.739592 35 6428ft 0kts
07-Jul-19 19:17 43.601690 -110.739592 35 6429ft 0kts
07-Jul-19 19:18 43.601690 -110.739592 35 6429ft 0kts
07-Jul-19 19:19 43.601847 -110.739384 44 6429ft 7kts
07-Jul-19 19:20 43.607155 -110.736308 21 6429ft 24kts
07-Jul-19 19:21 43.612110 -110.733778 19 6429ft 24kts
07-Jul-19 19:22 43.614608 -110.732619 18 6429ft 0kts
07-Jul-19 19:23 43.614608 -110.732619 18 6429ft 0kts
07-Jul-19 19:24 43.614611 -110.732618 13 6428ft 0kts
07-Jul-19 19:25 43.615204 -110.733948 223 6429ft 9kts
07-Jul-19 19:26 43.603360 -110.739715 199 6429ft 146kts
07-Jul-19 19:27 43.563955 -110.762842 207 8547ft 153kts
07-Jul-19 19:28 43.523933 -110.789213 207 9899ft 181kts
07-Jul-19 19:29 43.470889 -110.823812 206 11170ft 246kts
07-Jul-19 19:30 43.403273 -110.868960 208 13041ft 298kts
07-Jul-19 19:31 43.326004 -110.833156 143 15126ft 352kts
07-Jul-19 19:32 43.249775 -110.747951 137 17988ft 356kts
07-Jul-19 19:33 43.164396 -110.662335 137 19349ft 398kts
07-Jul-19 19:34 43.073975 -110.565875 137 21347ft 414kts
07-Jul-19 19:35 42.986553 -110.470266 135 23227ft 407kts
07-Jul-19 19:36 42.897557 -110.371341 136 24865ft 417kts
07-Jul-19 19:37 42.805325 -110.272945 137 26412ft 427kts
07-Jul-19 19:38 42.710790 -110.172763 137 27832ft 435kts
07-Jul-19 19:39 42.614514 -110.071188 137 29125ft 443kts
07-Jul-19 19:40 42.516384 -109.968065 138 30294ft 451kts
07-Jul-19 19:41 42.416334 -109.863375 138 31353ft 458kts
07-Jul-19 19:42 42.314854 -109.757659 138 32323ft 464kts
07-Jul-19 19:43 42.212295 -109.651219 138 33171ft 470kts
07-Jul-19 19:44 42.108850 -109.544346 138 34234ft 465kts
07-Jul-19 19:45 42.007692 -109.440230 138 35129ft 459kts
07-Jul-19 19:46 41.906192 -109.336166 138 35133ft 459kts
07-Jul-19 19:47 41.804526 -109.232499 138 35136ft 458kts
07-Jul-19 19:48 41.703093 -109.129408 138 35137ft 458kts
07-Jul-19 19:49 41.607547 -109.019275 125 35136ft 451kts
07-Jul-19 19:50 41.547220 -108.875700 106 35137ft 441kts
07-Jul-19 19:51 41.501454 -108.724057 106 35136ft 442kts
07-Jul-19 19:52 41.454902 -108.572039 106 35137ft 442kts
07-Jul-19 19:53 41.408549 -108.421559 106 35137ft 443kts
07-Jul-19 19:54 41.362714 -108.273490 107 35135ft 442kts
07-Jul-19 19:55 41.309877 -108.125252 112 35168ft 445kts
07-Jul-19 19:56 41.252013 -107.979671 112 35187ft 446kts
07-Jul-19 19:57 41.194766 -107.834479 112 35191ft 444kts
07-Jul-19 19:58 41.137343 -107.689288 112 35191ft 445kts
07-Jul-19 19:59 41.079584 -107.543961 112 35191ft 445kts
07-Jul-19 20:00 41.021837 -107.399371 112 35191ft 445kts
07-Jul-19 20:01 40.963795 -107.254509 112 35190ft 444kts
07-Jul-19 20:02 40.905880 -107.110723 113 35190ft 446kts
07-Jul-19 20:03 40.848257 -106.969594 113 35190ft 446kts
07-Jul-19 20:04 40.789626 -106.825830 113 35215ft 446kts
07-Jul-19 20:06 40.730954 -106.682424 112 35225ft 445kts
07-Jul-19 20:07 40.672116 -106.539242 112 35208ft 442kts
07-Jul-19 20:08 40.613639 -106.397464 113 31001ft 454kts
07-Jul-19 20:09 40.554994 -106.256165 113 29953ft 429kts
07-Jul-19 20:10 40.498339 -106.120181 113 28470ft 418kts
07-Jul-19 20:11 40.446573 -105.987032 103 26793ft 401kts
07-Jul-19 20:12 40.422198 -105.849206 95 25246ft 383kts
07-Jul-19 20:13 40.400991 -105.713989 95 23638ft 375kts
07-Jul-19 20:14 40.380047 -105.582185 95 22021ft 367kts
07-Jul-19 20:15 40.359489 -105.457913 100 21478ft 336kts
07-Jul-19 20:16 40.304846 -105.354713 124 19838ft 352kts
07-Jul-19 20:17 40.242538 -105.257177 125 18360ft 346kts
07-Jul-19 20:18 40.181471 -105.161647 125 17046ft 337kts
07-Jul-19 20:19 40.122687 -105.069825 125 16713ft 331kts
07-Jul-19 20:20 40.063514 -104.977641 125 15151ft 334kts
07-Jul-19 20:21 40.004285 -104.885707 126 13745ft 330kts
07-Jul-19 20:22 39.939608 -104.804555 168 12417ft 325kts
07-Jul-19 20:23 39.850326 -104.806855 184 11130ft 314kts
07-Jul-19 20:24 39.769650 -104.808950 184 10681ft 275kts
07-Jul-19 20:25 39.694078 -104.810321 184 9522ft 269kts
07-Jul-19 20:25 39.636448 -104.793893 126 8787ft 259kts
07-Jul-19 20:27 39.624230 -104.695588 83 8003ft 215kts
07-Jul-19 20:28 39.661158 -104.653263 15 8025ft 184kts
07-Jul-19 20:28 39.702311 -104.643865 357 7801ft 179kts
07-Jul-19 20:29 39.744961 -104.642803 356 7158ft 140kts
07-Jul-19 20:30 39.782936 -104.642334 356 6446ft 135kts
07-Jul-19 20:31 39.820115 -104.641919 355 5729ft 133kts
07-Jul-19 20:32 39.849009 -104.641473 357 5443ft 49kts
07-Jul-19 20:33 39.856603 -104.644352 263 5443ft 15kts
07-Jul-19 20:34 39.856677 -104.650350 271 5443ft 18kts
07-Jul-19 20:35 39.856726 -104.657497 269 5443ft 21kts
07-Jul-19 20:36 39.855565 -104.663445 178 5443ft 16kts
07-Jul-19 20:37 39.852725 -104.665867 260 5443ft 13kts
07-Jul-19 20:38 39.852739 -104.670269 269 5443ft 11kts
07-Jul-19 20:39 39.852775 -104.674856 271 5443ft 13kts
07-Jul-19 20:40 39.853087 -104.676947 21 5443ft 3kts
07-Jul-19 20:41 39.853432 -104.676927 1 5443ft 0kts
07-Jul-19 20:42 39.853432 -104.676927 1 5443ft 0kts
07-Jul-19 20:43 39.853432 -104.676927 1 5443ft 0kts

Navigation Log

Ident Type
Flight plan parsing failed, navigation log unavailable